createdAt,value
2022-09-28T00:01:21.713Z,11.97
2022-09-28T00:03:51.643Z,11.88
2022-09-28T00:06:22.251Z,11.80
2022-09-28T00:08:50.613Z,11.75
2022-09-28T00:11:20.856Z,11.72
2022-09-28T00:13:51.796Z,11.67
2022-09-28T00:16:24.387Z,11.63
2022-09-28T00:18:53.988Z,11.58
2022-09-28T00:21:24.287Z,11.53
2022-09-28T00:24:13.363Z,11.52
2022-09-28T00:26:57.050Z,11.52
2022-09-28T00:29:33.137Z,11.49
2022-09-28T00:32:04.264Z,11.50
2022-09-28T00:34:37.901Z,11.54
2022-09-28T00:37:09.015Z,11.59
2022-09-28T00:39:38.576Z,11.63
2022-09-28T00:42:22.480Z,11.68
2022-09-28T00:44:54.362Z,11.73
2022-09-28T00:47:38.048Z,11.72
2022-09-28T00:50:18.747Z,11.72
2022-09-28T00:53:11.330Z,11.75
2022-09-28T00:55:45.981Z,11.77
2022-09-28T00:58:20.599Z,11.83
2022-09-28T01:00:49.672Z,11.87
2022-09-28T01:03:17.735Z,11.92
2022-09-28T01:05:48.607Z,11.94
2022-09-28T01:08:21.108Z,11.95
2022-09-28T01:10:51.063Z,11.97
2022-09-28T01:13:23.748Z,11.98
2022-09-28T01:16:03.688Z,11.99
2022-09-28T01:18:50.383Z,11.98
2022-09-28T01:21:26.049Z,11.98
2022-09-28T01:24:31.593Z,11.98
2022-09-28T01:27:06.161Z,11.97
2022-09-28T01:29:48.663Z,11.93
2022-09-28T01:32:50.367Z,11.90
2022-09-28T01:35:23.580Z,11.85
2022-09-28T01:38:02.512Z,11.80
2022-09-28T01:40:32.744Z,11.76
2022-09-28T01:43:09.588Z,11.72
2022-09-28T01:45:47.918Z,11.71
2022-09-28T01:48:39.512Z,11.69
2022-09-28T01:51:17.312Z,11.68
2022-09-28T01:53:52.052Z,11.67
2022-09-28T01:56:30.959Z,11.67
2022-09-28T01:59:08.501Z,11.69
2022-09-28T02:02:27.504Z,11.70
2022-09-28T02:05:12.590Z,11.73
2022-09-28T02:08:03.687Z,11.75
2022-09-28T02:10:41.890Z,11.79
2022-09-28T02:13:14.374Z,11.82
2022-09-28T02:16:03.626Z,11.84
2022-09-28T02:18:32.521Z,11.90
2022-09-28T02:21:23.129Z,11.96
2022-09-28T02:24:02.862Z,12.03
2022-09-28T02:26:35.921Z,12.10
2022-09-28T02:29:04.098Z,12.15
2022-09-28T02:31:32.258Z,12.21
2022-09-28T02:34:00.393Z,12.28
2022-09-28T02:36:29.804Z,12.32
2022-09-28T02:39:01.226Z,12.37
2022-09-28T02:41:42.797Z,12.41
2022-09-28T02:44:29.319Z,12.40
2022-09-28T02:47:22.622Z,12.40
2022-09-28T02:49:54.606Z,12.40
2022-09-28T02:52:34.558Z,12.45
2022-09-28T02:55:11.527Z,12.49
2022-09-28T02:57:54.119Z,12.47
2022-09-28T03:00:24.144Z,12.40
2022-09-28T03:03:00.746Z,12.35
2022-09-28T03:05:33.226Z,12.33
2022-09-28T03:08:06.974Z,12.31
2022-09-28T03:11:05.589Z,12.29
2022-09-28T03:13:35.511Z,12.24
2022-09-28T03:16:13.590Z,12.20
2022-09-28T03:18:42.356Z,12.15
2022-09-28T03:21:15.247Z,12.09
2022-09-28T03:23:43.639Z,12.04
2022-09-28T03:26:12.831Z,12.00
2022-09-28T03:28:41.305Z,11.97
2022-09-28T03:31:11.554Z,11.95
2022-09-28T03:33:39.487Z,11.92
2022-09-28T03:36:09.671Z,11.89
2022-09-28T03:38:38.773Z,11.89
2022-09-28T03:41:08.154Z,11.91
2022-09-28T03:43:38.036Z,11.91
2022-09-28T03:46:06.362Z,11.91
2022-09-28T03:48:40.258Z,11.93
2022-09-28T03:51:12.257Z,11.95
2022-09-28T03:53:41.121Z,11.99
2022-09-28T03:56:13.347Z,12.01
2022-09-28T03:58:42.693Z,12.04
2022-09-28T04:01:17.710Z,12.06
2022-09-28T04:03:48.059Z,12.08
2022-09-28T04:06:16.127Z,12.14
2022-09-28T04:08:44.075Z,12.19
2022-09-28T04:11:12.543Z,12.27
2022-09-28T04:13:41.729Z,12.33
2022-09-28T04:16:12.049Z,12.40
2022-09-28T04:18:43.985Z,12.41
2022-09-28T04:21:13.665Z,12.41
2022-09-28T04:23:46.396Z,12.41
2022-09-28T04:26:22.402Z,12.36
2022-09-28T04:29:10.049Z,12.34
2022-09-28T04:31:39.120Z,12.37
2022-09-28T04:34:07.833Z,12.36
2022-09-28T04:36:35.829Z,12.32
2022-09-28T04:39:03.994Z,12.35
2022-09-28T04:41:33.628Z,12.39
2022-09-28T04:44:02.484Z,12.43
2022-09-28T04:46:30.631Z,12.43
2022-09-28T04:49:27.449Z,12.42
2022-09-28T04:51:58.654Z,12.40
2022-09-28T04:54:26.649Z,12.35
2022-09-28T04:56:55.481Z,12.32
2022-09-28T04:59:23.408Z,12.26
2022-09-28T05:01:51.454Z,12.16
2022-09-28T05:04:25.752Z,12.06
2022-09-28T05:07:17.266Z,11.97
2022-09-28T05:09:45.100Z,11.93
2022-09-28T05:12:13.066Z,11.93
2022-09-28T05:14:42.072Z,11.91
2022-09-28T05:17:10.855Z,11.88
2022-09-28T05:19:59.375Z,11.86
2022-09-28T05:22:27.325Z,11.85
2022-09-28T05:24:58.278Z,11.84
2022-09-28T05:27:26.323Z,11.83
2022-09-28T05:30:07.366Z,11.81
2022-09-28T05:33:05.264Z,11.84
2022-09-28T05:35:43.336Z,11.88
2022-09-28T05:38:11.283Z,11.91
2022-09-28T05:40:39.234Z,11.95
2022-09-28T05:43:07.201Z,12.00
2022-09-28T05:45:35.181Z,12.07
2022-09-28T05:48:04.804Z,12.15
2022-09-28T05:50:32.864Z,12.22
2022-09-28T05:53:03.108Z,12.29
2022-09-28T05:55:31.894Z,12.34
2022-09-28T05:58:01.393Z,12.39
2022-09-28T06:00:33.722Z,12.46
2022-09-28T06:03:09.314Z,12.55
2022-09-28T06:05:39.541Z,12.65
2022-09-28T06:08:10.416Z,12.72
2022-09-28T06:10:40.990Z,12.77
2022-09-28T06:13:10.691Z,12.82
2022-09-28T06:15:42.570Z,12.90
2022-09-28T06:18:16.680Z,12.97
2022-09-28T06:21:02.878Z,13.04
2022-09-28T06:23:37.006Z,13.14
2022-09-28T06:26:06.610Z,13.24
2022-09-28T06:28:34.677Z,13.27
2022-09-28T06:31:02.721Z,13.30
2022-09-28T06:33:31.532Z,13.33
2022-09-28T06:36:00.231Z,13.36
2022-09-28T06:38:28.188Z,13.40
2022-09-28T06:40:57.997Z,13.43
2022-09-28T06:43:32.123Z,13.48
2022-09-28T06:46:15.295Z,13.52
2022-09-28T06:48:50.161Z,13.54
2022-09-28T06:51:34.489Z,13.55
2022-09-28T06:54:12.834Z,13.53
2022-09-28T06:56:42.867Z,13.50
2022-09-28T06:59:11.259Z,13.52
2022-09-28T07:01:39.753Z,13.54
2022-09-28T07:04:20.716Z,13.56
2022-09-28T07:07:09.011Z,13.60
2022-09-28T07:09:50.308Z,13.63
2022-09-28T07:12:44.235Z,13.67
2022-09-28T07:15:31.788Z,13.75
2022-09-28T07:18:03.919Z,13.83
2022-09-28T07:20:46.765Z,13.88
2022-09-28T07:23:19.797Z,13.88
2022-09-28T07:26:09.324Z,13.91
2022-09-28T07:28:51.582Z,13.94
2022-09-28T07:31:43.212Z,13.94
2022-09-28T07:34:29.693Z,13.93
2022-09-28T07:37:02.333Z,13.91
2022-09-28T07:39:30.500Z,13.90
2022-09-28T07:42:02.505Z,13.89
2022-09-28T07:44:31.040Z,13.86
2022-09-28T07:46:59.408Z,13.83
2022-09-28T07:49:55.836Z,13.88
2022-09-28T07:52:44.388Z,13.93
2022-09-28T07:55:21.541Z,14.04
2022-09-28T07:58:03.273Z,14.19
2022-09-28T08:00:55.496Z,14.32
2022-09-28T08:03:23.515Z,14.44
2022-09-28T08:06:02.427Z,14.54
2022-09-28T08:08:31.141Z,14.60
2022-09-28T08:10:59.649Z,14.71
2022-09-28T08:13:53.055Z,14.81
2022-09-28T08:19:15.202Z,14.97
2022-09-28T08:21:46.075Z,15.02
2022-09-28T08:24:16.252Z,15.10
2022-09-28T08:26:44.749Z,15.19
2022-09-28T08:29:15.307Z,15.29
2022-09-28T08:31:48.593Z,15.39
2022-09-28T08:34:42.718Z,15.53
2022-09-28T08:37:56.181Z,15.69
2022-09-28T08:40:57.655Z,15.64
2022-09-28T08:44:02.068Z,15.59
2022-09-28T08:46:48.651Z,15.53
2022-09-28T08:49:48.603Z,15.43
2022-09-28T08:52:37.215Z,15.39
2022-09-28T08:55:29.232Z,15.45
2022-09-28T08:58:03.103Z,15.56
2022-09-28T09:00:42.692Z,15.63
2022-09-28T09:03:15.013Z,15.66
2022-09-28T09:06:18.592Z,15.73
2022-09-28T09:08:57.513Z,15.88
2022-09-28T09:11:38.399Z,16.04
2022-09-28T09:14:09.373Z,16.20
2022-09-28T09:17:01.939Z,16.35
2022-09-28T09:20:18.352Z,16.37
2022-09-28T09:22:53.374Z,16.34
2022-09-28T09:25:40.531Z,16.39
2022-09-28T09:28:38.599Z,16.44
2022-09-28T09:31:17.693Z,16.50
2022-09-28T09:34:41.166Z,16.59
2022-09-28T09:37:35.516Z,16.65
2022-09-28T09:40:47.264Z,16.72
2022-09-28T09:43:42.353Z,16.85
2022-09-28T09:46:40.839Z,16.91
2022-09-28T09:49:33.553Z,16.91
2022-09-28T09:52:07.467Z,16.97
2022-09-28T09:55:00.434Z,17.02
2022-09-28T09:57:55.883Z,17.09
2022-09-28T10:00:34.861Z,17.25
2022-09-28T10:03:19.745Z,17.39
2022-09-28T10:05:58.356Z,17.51
2022-09-28T10:08:28.709Z,17.58
2022-09-28T10:11:14.285Z,17.52
2022-09-28T10:13:44.723Z,17.53
2022-09-28T10:16:33.557Z,17.51
2022-09-28T10:19:02.629Z,17.37
2022-09-28T10:21:52.019Z,17.25
2022-09-28T10:24:35.722Z,17.16
2022-09-28T10:27:13.917Z,17.07
2022-09-28T10:29:54.167Z,17.00
2022-09-28T10:32:27.862Z,16.85
2022-09-28T10:35:24.099Z,16.74
2022-09-28T10:38:20.037Z,16.68
2022-09-28T10:41:11.064Z,16.75
2022-09-28T10:44:06.794Z,16.91
2022-09-28T10:46:43.384Z,17.04
2022-09-28T10:49:18.751Z,17.12
2022-09-28T10:51:56.259Z,17.15
2022-09-28T10:54:31.811Z,17.13
2022-09-28T10:57:01.508Z,17.13
2022-09-28T10:59:42.007Z,17.12
2022-09-28T11:02:37.602Z,17.14
2022-09-28T11:05:21.918Z,17.15
2022-09-28T11:07:52.473Z,17.20
2022-09-28T11:10:26.672Z,17.27
2022-09-28T11:12:58.483Z,17.28
2022-09-28T11:15:33.301Z,17.30
2022-09-28T11:18:22.541Z,17.38
2022-09-28T11:20:50.529Z,17.53
2022-09-28T11:23:29.554Z,17.57
2022-09-28T11:26:05.885Z,17.75
2022-09-28T11:28:37.733Z,17.91
2022-09-28T11:31:16.960Z,17.84
2022-09-28T11:34:15.057Z,17.78
2022-09-28T11:37:05.253Z,17.63
2022-09-28T11:39:51.430Z,17.37
2022-09-28T11:42:32.241Z,17.09
2022-09-28T11:45:34.014Z,16.95
2022-09-28T11:48:03.878Z,16.95
2022-09-28T11:50:48.770Z,16.98
2022-09-28T11:53:33.551Z,17.14
2022-09-28T11:56:18.893Z,17.45
2022-09-28T11:58:52.379Z,17.65
2022-09-28T12:01:37.527Z,17.68
2022-09-28T12:04:37.032Z,17.82
2022-09-28T12:07:32.577Z,17.90
2022-09-28T12:10:26.720Z,17.91
2022-09-28T12:13:10.260Z,18.01
2022-09-28T12:16:06.853Z,18.14
2022-09-28T12:18:41.870Z,18.26
2022-09-28T12:21:28.508Z,18.27
2022-09-28T12:24:03.845Z,18.17
2022-09-28T12:26:39.127Z,18.08
2022-09-28T12:29:14.557Z,18.00
2022-09-28T12:31:57.684Z,17.94
2022-09-28T12:34:25.990Z,17.89
2022-09-28T12:37:05.666Z,17.87
2022-09-28T12:40:03.475Z,17.84
2022-09-28T12:42:46.198Z,17.77
2022-09-28T12:45:27.763Z,17.71
2022-09-28T12:48:27.650Z,17.64
2022-09-28T12:51:01.860Z,17.55
2022-09-28T12:53:35.756Z,17.44
2022-09-28T12:56:23.822Z,17.35
2022-09-28T12:59:13.040Z,17.25
2022-09-28T13:02:01.667Z,17.14
2022-09-28T13:05:07.245Z,17.09
2022-09-28T13:08:09.244Z,17.06
2022-09-28T13:10:41.070Z,17.03
2022-09-28T13:13:35.111Z,17.02
2022-09-28T13:16:17.505Z,17.01
2022-09-28T13:18:54.630Z,17.00
2022-09-28T13:21:51.398Z,16.99
2022-09-28T13:24:32.748Z,16.98
2022-09-28T13:27:13.343Z,16.98
2022-09-28T13:29:43.420Z,16.95
2022-09-28T13:32:12.866Z,16.94
2022-09-28T13:34:40.942Z,16.92
2022-09-28T13:37:17.735Z,16.91
2022-09-28T13:39:45.860Z,16.87
2022-09-28T13:42:52.925Z,16.84
2022-09-28T13:45:27.989Z,16.79
2022-09-28T13:48:23.045Z,16.74
2022-09-28T13:50:58.313Z,16.68
2022-09-28T13:53:26.255Z,16.60
2022-09-28T13:56:04.555Z,16.54
2022-09-28T13:58:43.533Z,16.50
2022-09-28T14:01:13.874Z,16.47
2022-09-28T14:03:54.265Z,16.45
2022-09-28T14:06:31.052Z,16.46
2022-09-28T14:08:58.918Z,16.47
2022-09-28T14:11:35.990Z,16.47
2022-09-28T14:14:14.070Z,16.48
2022-09-28T14:16:42.845Z,16.48
2022-09-28T14:19:31.509Z,16.44
2022-09-28T14:22:14.561Z,16.39
2022-09-28T14:24:55.637Z,16.36
2022-09-28T14:28:00.331Z,16.32
2022-09-28T14:30:50.445Z,16.27
2022-09-28T14:33:21.151Z,16.22
2022-09-28T14:35:54.193Z,16.19
2022-09-28T14:39:05.805Z,16.18
2022-09-28T14:41:40.737Z,16.18
2022-09-28T14:44:18.838Z,16.17
2022-09-28T14:46:48.318Z,16.17
2022-09-28T14:49:23.385Z,16.15
2022-09-28T14:51:54.469Z,16.14
2022-09-28T14:54:23.676Z,16.14
2022-09-28T14:56:57.150Z,16.12
2022-09-28T14:59:34.637Z,16.11
2022-09-28T15:02:12.521Z,16.08
2022-09-28T15:05:01.899Z,16.07
2022-09-28T15:07:44.000Z,16.05
2022-09-28T15:10:26.632Z,16.03
2022-09-28T15:12:57.291Z,16.00
2022-09-28T15:15:34.594Z,15.98
2022-09-28T15:18:33.785Z,15.96
2022-09-28T15:21:02.252Z,15.93
2022-09-28T15:23:55.278Z,15.89
2022-09-28T15:26:48.257Z,15.87
2022-09-28T15:29:41.094Z,15.85
2022-09-28T15:32:33.256Z,15.83
2022-09-28T15:35:27.469Z,15.82
2022-09-28T15:38:19.016Z,15.81
2022-09-28T15:41:11.768Z,15.78
2022-09-28T15:44:17.163Z,15.76
2022-09-28T15:47:32.044Z,15.74
2022-09-28T15:50:28.372Z,15.69
2022-09-28T15:53:19.990Z,15.63
2022-09-28T15:56:12.107Z,15.56
2022-09-28T15:59:30.883Z,15.49
2022-09-28T16:02:24.254Z,15.38
2022-09-28T16:05:35.664Z,15.27
2022-09-28T16:08:40.306Z,15.18
2022-09-28T16:11:39.948Z,15.07
2022-09-28T16:14:32.495Z,15.00
2022-09-28T16:17:33.897Z,14.93
2022-09-28T16:20:32.592Z,14.88
2022-09-28T16:23:24.380Z,14.82
2022-09-28T16:26:29.174Z,14.77
2022-09-28T16:29:26.528Z,14.73
2022-09-28T16:32:27.276Z,14.67
2022-09-28T16:35:28.388Z,14.59
2022-09-28T16:38:20.657Z,14.52
2022-09-28T16:41:24.068Z,14.44
2022-09-28T16:44:24.332Z,14.40
2022-09-28T16:47:16.135Z,14.34
2022-09-28T16:50:11.319Z,14.27
2022-09-28T16:53:33.902Z,14.23
2022-09-28T16:56:27.775Z,14.20
2022-09-28T16:59:22.201Z,14.17
2022-09-28T17:02:45.033Z,14.14
2022-09-28T17:05:32.059Z,14.09
2022-09-28T17:08:25.636Z,14.05
2022-09-28T17:11:24.057Z,13.97
2022-09-28T17:14:16.998Z,13.89
2022-09-28T17:17:13.704Z,13.82
2022-09-28T17:20:35.607Z,13.73
2022-09-28T17:23:26.911Z,13.63
2022-09-28T17:26:30.831Z,13.56
2022-09-28T17:29:23.789Z,13.44
2022-09-28T17:32:19.580Z,13.32
2022-09-28T17:35:24.315Z,13.25
2022-09-28T17:38:17.226Z,13.17
2022-09-28T17:41:19.371Z,13.12
2022-09-28T17:44:15.204Z,13.09
2022-09-28T17:47:07.105Z,13.05
2022-09-28T17:49:59.320Z,13.02
2022-09-28T17:52:52.644Z,13.00
2022-09-28T17:55:44.119Z,12.95
2022-09-28T17:58:35.926Z,12.93
2022-09-28T18:01:33.956Z,12.91
2022-09-28T18:04:50.107Z,12.87
2022-09-28T18:07:38.851Z,12.83
2022-09-28T18:10:31.186Z,12.81
2022-09-28T18:13:24.685Z,12.79
2022-09-28T18:16:17.501Z,12.77
2022-09-28T18:19:09.200Z,12.75
2022-09-28T18:22:01.830Z,12.72
2022-09-28T18:24:54.321Z,12.69
2022-09-28T18:27:46.150Z,12.65
2022-09-28T18:30:42.889Z,12.62
2022-09-28T18:33:35.581Z,12.60
2022-09-28T18:36:31.644Z,12.58
2022-09-28T18:39:23.967Z,12.56
2022-09-28T18:42:16.503Z,12.55
2022-09-28T18:45:13.248Z,12.53
2022-09-28T18:48:05.079Z,12.52
2022-09-28T18:50:56.848Z,12.50
2022-09-28T18:53:49.237Z,12.48
2022-09-28T18:56:41.244Z,12.46
2022-09-28T18:59:33.633Z,12.43
2022-09-28T19:02:25.206Z,12.40
2022-09-28T19:05:17.221Z,12.37
2022-09-28T19:08:09.733Z,12.35
2022-09-28T19:11:12.982Z,12.33
2022-09-28T19:14:05.419Z,12.31
2022-09-28T19:16:57.115Z,12.31
2022-09-28T19:19:49.147Z,12.32
2022-09-28T19:22:41.412Z,12.34
2022-09-28T19:25:34.439Z,12.34
2022-09-28T19:28:28.505Z,12.34
2022-09-28T19:31:21.548Z,12.34
2022-09-28T19:34:14.409Z,12.33
2022-09-28T19:37:06.475Z,12.30
2022-09-28T19:39:58.088Z,12.28
2022-09-28T19:42:50.511Z,12.26
2022-09-28T19:45:42.858Z,12.27
2022-09-28T19:48:35.814Z,12.27
2022-09-28T19:51:28.868Z,12.30
2022-09-28T19:54:22.337Z,12.34
2022-09-28T19:57:16.039Z,12.38
2022-09-28T20:00:09.008Z,12.40
2022-09-28T20:03:01.326Z,12.35
2022-09-28T20:05:57.927Z,12.34
2022-09-28T20:08:51.261Z,12.39
2022-09-28T20:11:43.068Z,12.38
2022-09-28T20:14:38.248Z,12.34
2022-09-28T20:17:32.561Z,12.34
2022-09-28T20:20:26.924Z,12.35
2022-09-28T20:23:21.519Z,12.32
2022-09-28T20:26:14.175Z,12.29
2022-09-28T20:29:07.584Z,12.29
2022-09-28T20:31:59.350Z,12.27
2022-09-28T20:34:51.096Z,12.24
2022-09-28T20:37:44.230Z,12.20
2022-09-28T20:40:37.875Z,12.15
2022-09-28T20:43:31.516Z,12.12
2022-09-28T20:46:24.029Z,12.07
2022-09-28T20:49:16.300Z,12.05
2022-09-28T20:52:08.902Z,12.02
2022-09-28T20:55:01.753Z,12.01
2022-09-28T20:57:53.309Z,11.99
2022-09-28T21:00:45.832Z,11.96
2022-09-28T21:03:38.924Z,11.93
2022-09-28T21:06:37.607Z,11.88
2022-09-28T21:09:32.072Z,11.86
2022-09-28T21:12:26.260Z,11.83
2022-09-28T21:15:18.151Z,11.81
2022-09-28T21:18:10.765Z,11.79
2022-09-28T21:21:06.248Z,11.76
2022-09-28T21:23:58.993Z,11.73
2022-09-28T21:26:51.194Z,11.71
2022-09-28T21:29:43.457Z,11.69
2022-09-28T21:32:35.253Z,11.70
2022-09-28T21:35:28.008Z,11.72
2022-09-28T21:38:20.467Z,11.73
2022-09-28T21:41:12.336Z,11.75
2022-09-28T21:44:04.288Z,11.79
2022-09-28T21:46:56.090Z,11.85
2022-09-28T21:49:48.395Z,11.90
2022-09-28T21:52:40.260Z,11.93
2022-09-28T21:55:32.068Z,11.98
2022-09-28T21:58:27.697Z,12.03
2022-09-28T22:01:22.566Z,12.04
2022-09-28T22:04:14.656Z,12.07
2022-09-28T22:07:06.410Z,12.10
2022-09-28T22:09:58.343Z,12.15
2022-09-28T22:12:50.224Z,12.15
2022-09-28T22:15:42.376Z,12.11
2022-09-28T22:18:34.625Z,12.08
2022-09-28T22:21:29.800Z,12.07
2022-09-28T22:24:21.624Z,12.06
2022-09-28T22:27:15.525Z,12.05
2022-09-28T22:30:07.941Z,12.01
2022-09-28T22:32:58.992Z,11.97
2022-09-28T22:35:52.172Z,11.95
2022-09-28T22:38:45.023Z,11.93
2022-09-28T22:41:37.163Z,11.92
2022-09-28T22:44:29.536Z,11.92
2022-09-28T22:47:21.416Z,11.91
2022-09-28T22:50:13.602Z,11.84
2022-09-28T22:53:06.468Z,11.77
2022-09-28T22:56:00.872Z,11.72
2022-09-28T22:58:52.107Z,11.69
2022-09-28T23:01:44.607Z,11.69
2022-09-28T23:04:36.291Z,11.69
2022-09-28T23:07:28.538Z,11.68
2022-09-28T23:10:20.733Z,11.66
2022-09-28T23:13:12.342Z,11.64
2022-09-28T23:16:07.645Z,11.61
2022-09-28T23:18:59.567Z,11.59
2022-09-28T23:21:51.630Z,11.57
2022-09-28T23:24:43.514Z,11.57
2022-09-28T23:27:35.285Z,11.55
2022-09-28T23:30:27.696Z,11.57
2022-09-28T23:33:21.087Z,11.57
2022-09-28T23:36:13.870Z,11.59
2022-09-28T23:39:05.232Z,11.61
2022-09-28T23:41:59.096Z,11.63
2022-09-28T23:44:51.283Z,11.65
2022-09-28T23:47:43.156Z,11.66
2022-09-28T23:50:35.688Z,11.68
2022-09-28T23:53:28.421Z,11.70
2022-09-28T23:56:20.191Z,11.73
2022-09-28T23:59:12.456Z,11.75
